sensor_id;sensor_type;location;lat;lon;timestamp;P1;durP1;ratioP1;P2;durP2;ratioP2
51292;SDS011;37377;45.186;9.778;2023-04-24T00:01:23;8.73;;;3.75;;
51292;SDS011;37377;45.186;9.778;2023-04-24T00:03:50;5.50;;;4.60;;
51292;SDS011;37377;45.186;9.778;2023-04-24T00:06:18;7.97;;;4.20;;
51292;SDS011;37377;45.186;9.778;2023-04-24T00:08:46;5.05;;;3.72;;
51292;SDS011;37377;45.186;9.778;2023-04-24T00:11:13;12.55;;;5.55;;
51292;SDS011;37377;45.186;9.778;2023-04-24T00:13:40;8.82;;;3.95;;
51292;SDS011;37377;45.186;9.778;2023-04-24T00:16:07;13.25;;;5.25;;
51292;SDS011;37377;45.186;9.778;2023-04-24T00:18:35;8.95;;;4.40;;
51292;SDS011;37377;45.186;9.778;2023-04-24T00:21:02;8.57;;;3.95;;
51292;SDS011;37377;45.186;9.778;2023-04-24T00:23:30;7.80;;;4.15;;
51292;SDS011;37377;45.186;9.778;2023-04-24T00:25:57;10.98;;;4.13;;
51292;SDS011;37377;45.186;9.778;2023-04-24T00:28:24;6.70;;;3.78;;
51292;SDS011;37377;45.186;9.778;2023-04-24T00:30:51;5.40;;;4.13;;
51292;SDS011;37377;45.186;9.778;2023-04-24T00:33:40;6.63;;;4.90;;
51292;SDS011;37377;45.186;9.778;2023-04-24T00:36:08;12.10;;;4.82;;
51292;SDS011;37377;45.186;9.778;2023-04-24T00:38:35;5.30;;;4.13;;
51292;SDS011;37377;45.186;9.778;2023-04-24T00:41:03;7.93;;;4.80;;
51292;SDS011;37377;45.186;9.778;2023-04-24T00:43:30;6.95;;;4.97;;
51292;SDS011;37377;45.186;9.778;2023-04-24T00:45:57;6.22;;;4.95;;
51292;SDS011;37377;45.186;9.778;2023-04-24T00:48:26;9.95;;;5.13;;
51292;SDS011;37377;45.186;9.778;2023-04-24T00:50:54;10.57;;;5.43;;
51292;SDS011;37377;45.186;9.778;2023-04-24T00:53:21;7.88;;;5.05;;
51292;SDS011;37377;45.186;9.778;2023-04-24T00:55:48;14.10;;;4.85;;
51292;SDS011;37377;45.186;9.778;2023-04-24T00:58:16;9.00;;;4.60;;
51292;SDS011;37377;45.186;9.778;2023-04-24T01:00:44;5.43;;;4.45;;
51292;SDS011;37377;45.186;9.778;2023-04-24T01:03:12;9.50;;;5.00;;
51292;SDS011;37377;45.186;9.778;2023-04-24T01:05:40;5.72;;;4.13;;
51292;SDS011;37377;45.186;9.778;2023-04-24T01:08:09;9.25;;;5.03;;
51292;SDS011;37377;45.186;9.778;2023-04-24T01:10:37;14.35;;;4.80;;
51292;SDS011;37377;45.186;9.778;2023-04-24T01:13:05;13.55;;;4.47;;
51292;SDS011;37377;45.186;9.778;2023-04-24T01:15:33;9.90;;;4.53;;
51292;SDS011;37377;45.186;9.778;2023-04-24T01:18:00;8.60;;;4.45;;
51292;SDS011;37377;45.186;9.778;2023-04-24T01:20:28;10.45;;;5.20;;
51292;SDS011;37377;45.186;9.778;2023-04-24T01:23:03;7.70;;;4.22;;
51292;SDS011;37377;45.186;9.778;2023-04-24T01:25:30;7.63;;;4.50;;
51292;SDS011;37377;45.186;9.778;2023-04-24T01:27:57;9.75;;;4.78;;
51292;SDS011;37377;45.186;9.778;2023-04-24T01:30:27;7.25;;;4.70;;
51292;SDS011;37377;45.186;9.778;2023-04-24T01:32:57;6.22;;;4.63;;
51292;SDS011;37377;45.186;9.778;2023-04-24T01:35:26;14.70;;;5.20;;
51292;SDS011;37377;45.186;9.778;2023-04-24T01:37:53;13.90;;;5.82;;
51292;SDS011;37377;45.186;9.778;2023-04-24T01:40:20;8.07;;;5.18;;
51292;SDS011;37377;45.186;9.778;2023-04-24T01:42:47;11.50;;;5.07;;
51292;SDS011;37377;45.186;9.778;2023-04-24T01:45:14;12.95;;;5.10;;
51292;SDS011;37377;45.186;9.778;2023-04-24T01:47:42;8.27;;;5.32;;
51292;SDS011;37377;45.186;9.778;2023-04-24T01:50:09;6.63;;;5.00;;
51292;SDS011;37377;45.186;9.778;2023-04-24T01:52:38;8.27;;;4.97;;
51292;SDS011;37377;45.186;9.778;2023-04-24T01:55:06;8.25;;;4.97;;
51292;SDS011;37377;45.186;9.778;2023-04-24T01:57:34;7.22;;;5.57;;
51292;SDS011;37377;45.186;9.778;2023-04-24T02:00:03;5.40;;;4.90;;
51292;SDS011;37377;45.186;9.778;2023-04-24T02:02:39;7.18;;;5.40;;
51292;SDS011;37377;45.186;9.778;2023-04-24T02:05:07;5.07;;;4.63;;
51292;SDS011;37377;45.186;9.778;2023-04-24T02:07:38;7.05;;;5.13;;
51292;SDS011;37377;45.186;9.778;2023-04-24T02:10:06;7.85;;;4.85;;
51292;SDS011;37377;45.186;9.778;2023-04-24T02:12:33;9.38;;;5.15;;
51292;SDS011;37377;45.186;9.778;2023-04-24T02:15:01;6.85;;;5.18;;
51292;SDS011;37377;45.186;9.778;2023-04-24T02:17:28;6.97;;;4.97;;
51292;SDS011;37377;45.186;9.778;2023-04-24T02:19:56;6.75;;;4.80;;
51292;SDS011;37377;45.186;9.778;2023-04-24T02:22:23;9.30;;;5.47;;
51292;SDS011;37377;45.186;9.778;2023-04-24T02:24:51;6.03;;;5.38;;
51292;SDS011;37377;45.186;9.778;2023-04-24T02:27:17;9.98;;;5.63;;
51292;SDS011;37377;45.186;9.778;2023-04-24T02:29:44;12.60;;;5.60;;
51292;SDS011;37377;45.186;9.778;2023-04-24T02:32:12;8.65;;;5.35;;
51292;SDS011;37377;45.186;9.778;2023-04-24T02:34:39;10.43;;;5.90;;
51292;SDS011;37377;45.186;9.778;2023-04-24T02:37:07;8.10;;;5.85;;
51292;SDS011;37377;45.186;9.778;2023-04-24T02:39:35;11.80;;;6.20;;
51292;SDS011;37377;45.186;9.778;2023-04-24T02:42:02;9.35;;;6.45;;
51292;SDS011;37377;45.186;9.778;2023-04-24T02:44:29;9.60;;;5.93;;
51292;SDS011;37377;45.186;9.778;2023-04-24T02:46:57;7.07;;;6.07;;
51292;SDS011;37377;45.186;9.778;2023-04-24T02:49:24;8.10;;;6.72;;
51292;SDS011;37377;45.186;9.778;2023-04-24T02:51:53;9.10;;;6.63;;
51292;SDS011;37377;45.186;9.778;2023-04-24T02:54:20;8.13;;;6.65;;
51292;SDS011;37377;45.186;9.778;2023-04-24T02:56:47;12.70;;;7.38;;
51292;SDS011;37377;45.186;9.778;2023-04-24T02:59:15;11.77;;;7.03;;
51292;SDS011;37377;45.186;9.778;2023-04-24T03:01:42;10.25;;;7.20;;
51292;SDS011;37377;45.186;9.778;2023-04-24T03:04:09;12.15;;;7.47;;
51292;SDS011;37377;45.186;9.778;2023-04-24T03:06:37;10.43;;;7.55;;
51292;SDS011;37377;45.186;9.778;2023-04-24T03:09:05;8.73;;;7.85;;
51292;SDS011;37377;45.186;9.778;2023-04-24T03:11:32;9.77;;;7.60;;
51292;SDS011;37377;45.186;9.778;2023-04-24T03:14:00;9.55;;;7.63;;
51292;SDS011;37377;45.186;9.778;2023-04-24T03:16:27;9.93;;;8.93;;
51292;SDS011;37377;45.186;9.778;2023-04-24T03:18:54;8.15;;;7.38;;
51292;SDS011;37377;45.186;9.778;2023-04-24T03:21:23;14.52;;;8.63;;
51292;SDS011;37377;45.186;9.778;2023-04-24T03:23:51;12.05;;;8.70;;
51292;SDS011;37377;45.186;9.778;2023-04-24T03:26:19;12.43;;;8.57;;
51292;SDS011;37377;45.186;9.778;2023-04-24T03:29:01;10.32;;;8.85;;
51292;SDS011;37377;45.186;9.778;2023-04-24T03:31:28;14.82;;;8.68;;
51292;SDS011;37377;45.186;9.778;2023-04-24T03:33:59;14.82;;;8.95;;
51292;SDS011;37377;45.186;9.778;2023-04-24T03:36:26;9.55;;;8.50;;
51292;SDS011;37377;45.186;9.778;2023-04-24T03:38:54;14.00;;;9.07;;
51292;SDS011;37377;45.186;9.778;2023-04-24T03:41:25;12.00;;;8.80;;
51292;SDS011;37377;45.186;9.778;2023-04-24T03:43:57;13.20;;;9.25;;
51292;SDS011;37377;45.186;9.778;2023-04-24T03:46:25;9.40;;;8.38;;
51292;SDS011;37377;45.186;9.778;2023-04-24T03:48:58;10.10;;;9.20;;
51292;SDS011;37377;45.186;9.778;2023-04-24T03:51:29;11.52;;;9.80;;
51292;SDS011;37377;45.186;9.778;2023-04-24T03:54:10;10.10;;;8.57;;
51292;SDS011;37377;45.186;9.778;2023-04-24T03:56:39;11.02;;;9.25;;
51292;SDS011;37377;45.186;9.778;2023-04-24T03:59:08;10.50;;;9.50;;
51292;SDS011;37377;45.186;9.778;2023-04-24T04:01:37;11.82;;;9.88;;
51292;SDS011;37377;45.186;9.778;2023-04-24T04:04:09;12.20;;;8.98;;
51292;SDS011;37377;45.186;9.778;2023-04-24T04:06:38;10.55;;;9.35;;
51292;SDS011;37377;45.186;9.778;2023-04-24T04:09:06;12.30;;;9.25;;
51292;SDS011;37377;45.186;9.778;2023-04-24T04:11:35;10.10;;;9.18;;
51292;SDS011;37377;45.186;9.778;2023-04-24T04:14:02;11.13;;;10.10;;
51292;SDS011;37377;45.186;9.778;2023-04-24T04:16:31;12.13;;;9.73;;
51292;SDS011;37377;45.186;9.778;2023-04-24T04:19:02;13.13;;;10.15;;
51292;SDS011;37377;45.186;9.778;2023-04-24T04:21:29;11.80;;;9.45;;
51292;SDS011;37377;45.186;9.778;2023-04-24T04:24:13;11.48;;;10.38;;
51292;SDS011;37377;45.186;9.778;2023-04-24T04:26:44;11.10;;;10.10;;
51292;SDS011;37377;45.186;9.778;2023-04-24T04:29:24;12.77;;;10.80;;
51292;SDS011;37377;45.186;9.778;2023-04-24T04:31:52;15.32;;;11.25;;
51292;SDS011;37377;45.186;9.778;2023-04-24T04:34:20;12.05;;;10.77;;
51292;SDS011;37377;45.186;9.778;2023-04-24T04:36:49;11.73;;;10.45;;
51292;SDS011;37377;45.186;9.778;2023-04-24T04:39:37;15.73;;;10.85;;
51292;SDS011;37377;45.186;9.778;2023-04-24T04:42:11;12.02;;;10.73;;
51292;SDS011;37377;45.186;9.778;2023-04-24T04:44:42;11.38;;;10.35;;
51292;SDS011;37377;45.186;9.778;2023-04-24T04:47:14;13.23;;;10.38;;
51292;SDS011;37377;45.186;9.778;2023-04-24T04:49:43;15.50;;;10.27;;
51292;SDS011;37377;45.186;9.778;2023-04-24T04:52:23;12.00;;;10.40;;
51292;SDS011;37377;45.186;9.778;2023-04-24T04:54:59;17.60;;;10.43;;
51292;SDS011;37377;45.186;9.778;2023-04-24T04:57:47;14.50;;;12.80;;
51292;SDS011;37377;45.186;9.778;2023-04-24T05:00:16;12.23;;;10.38;;
51292;SDS011;37377;45.186;9.778;2023-04-24T05:02:49;12.30;;;10.60;;
51292;SDS011;37377;45.186;9.778;2023-04-24T05:05:20;12.18;;;10.98;;
51292;SDS011;37377;45.186;9.778;2023-04-24T05:07:48;12.45;;;11.25;;
51292;SDS011;37377;45.186;9.778;2023-04-24T05:10:15;12.43;;;11.20;;
51292;SDS011;37377;45.186;9.778;2023-04-24T05:12:43;14.25;;;11.40;;
51292;SDS011;37377;45.186;9.778;2023-04-24T05:15:12;13.93;;;11.45;;
51292;SDS011;37377;45.186;9.778;2023-04-24T05:17:39;16.30;;;11.50;;
51292;SDS011;37377;45.186;9.778;2023-04-24T05:20:08;12.48;;;11.27;;
51292;SDS011;37377;45.186;9.778;2023-04-24T05:22:36;17.50;;;11.20;;
51292;SDS011;37377;45.186;9.778;2023-04-24T05:25:03;12.43;;;11.32;;
51292;SDS011;37377;45.186;9.778;2023-04-24T05:27:35;12.10;;;10.93;;
51292;SDS011;37377;45.186;9.778;2023-04-24T05:30:08;12.50;;;11.20;;
51292;SDS011;37377;45.186;9.778;2023-04-24T05:32:36;11.80;;;10.77;;
51292;SDS011;37377;45.186;9.778;2023-04-24T05:35:06;14.38;;;10.55;;
51292;SDS011;37377;45.186;9.778;2023-04-24T05:37:35;12.32;;;11.18;;
51292;SDS011;37377;45.186;9.778;2023-04-24T05:40:02;14.57;;;11.68;;
51292;SDS011;37377;45.186;9.778;2023-04-24T05:42:32;14.20;;;11.32;;
51292;SDS011;37377;45.186;9.778;2023-04-24T05:44:59;12.15;;;10.98;;
51292;SDS011;37377;45.186;9.778;2023-04-24T05:47:26;16.02;;;11.85;;
51292;SDS011;37377;45.186;9.778;2023-04-24T05:49:54;14.90;;;12.60;;
51292;SDS011;37377;45.186;9.778;2023-04-24T05:52:22;16.17;;;12.10;;
51292;SDS011;37377;45.186;9.778;2023-04-24T05:54:55;13.40;;;12.10;;
51292;SDS011;37377;45.186;9.778;2023-04-24T05:57:33;14.98;;;12.02;;
51292;SDS011;37377;45.186;9.778;2023-04-24T06:00:11;17.58;;;15.50;;
51292;SDS011;37377;45.186;9.778;2023-04-24T06:02:43;13.27;;;11.98;;
51292;SDS011;37377;45.186;9.778;2023-04-24T06:08:03;13.35;;;11.98;;
51292;SDS011;37377;45.186;9.778;2023-04-24T06:10:36;13.23;;;11.85;;
51292;SDS011;37377;45.186;9.778;2023-04-24T06:13:05;13.32;;;11.90;;
51292;SDS011;37377;45.186;9.778;2023-04-24T06:16:14;12.77;;;11.68;;
51292;SDS011;37377;45.186;9.778;2023-04-24T06:18:50;17.70;;;11.65;;
51292;SDS011;37377;45.186;9.778;2023-04-24T06:21:20;14.35;;;11.93;;
51292;SDS011;37377;45.186;9.778;2023-04-24T06:23:48;16.52;;;11.85;;
51292;SDS011;37377;45.186;9.778;2023-04-24T06:26:19;15.98;;;12.80;;
51292;SDS011;37377;45.186;9.778;2023-04-24T06:28:55;11.80;;;10.00;;
51292;SDS011;37377;45.186;9.778;2023-04-24T06:31:25;15.90;;;10.93;;
51292;SDS011;37377;45.186;9.778;2023-04-24T06:35:36;11.50;;;9.27;;
51292;SDS011;37377;45.186;9.778;2023-04-24T06:38:50;9.02;;;8.13;;
51292;SDS011;37377;45.186;9.778;2023-04-24T06:41:28;11.43;;;9.07;;
51292;SDS011;37377;45.186;9.778;2023-04-24T06:44:06;11.52;;;7.93;;
51292;SDS011;37377;45.186;9.778;2023-04-24T06:46:40;10.63;;;7.63;;
51292;SDS011;37377;45.186;9.778;2023-04-24T06:49:36;14.15;;;8.93;;
51292;SDS011;37377;45.186;9.778;2023-04-24T06:52:10;10.95;;;8.50;;
51292;SDS011;37377;45.186;9.778;2023-04-24T06:54:44;16.52;;;9.25;;
51292;SDS011;37377;45.186;9.778;2023-04-24T06:57:15;19.95;;;8.55;;
51292;SDS011;37377;45.186;9.778;2023-04-24T06:59:47;15.25;;;7.35;;
51292;SDS011;37377;45.186;9.778;2023-04-24T07:02:19;13.63;;;8.85;;
51292;SDS011;37377;45.186;9.778;2023-04-24T07:04:52;13.80;;;7.40;;
51292;SDS011;37377;45.186;9.778;2023-04-24T07:07:24;9.18;;;7.13;;
51292;SDS011;37377;45.186;9.778;2023-04-24T07:10:01;10.60;;;7.68;;
51292;SDS011;37377;45.186;9.778;2023-04-24T07:12:45;12.77;;;7.97;;
51292;SDS011;37377;45.186;9.778;2023-04-24T07:15:17;15.20;;;9.00;;
51292;SDS011;37377;45.186;9.778;2023-04-24T07:17:50;11.93;;;8.93;;
51292;SDS011;37377;45.186;9.778;2023-04-24T07:20:20;15.18;;;9.25;;
51292;SDS011;37377;45.186;9.778;2023-04-24T07:22:57;24.15;;;10.73;;
51292;SDS011;37377;45.186;9.778;2023-04-24T07:25:27;20.15;;;9.15;;
51292;SDS011;37377;45.186;9.778;2023-04-24T07:27:59;18.30;;;9.05;;
51292;SDS011;37377;45.186;9.778;2023-04-24T07:30:36;13.93;;;7.93;;
51292;SDS011;37377;45.186;9.778;2023-04-24T07:33:08;14.32;;;7.85;;
51292;SDS011;37377;45.186;9.778;2023-04-24T07:35:37;16.17;;;7.53;;
51292;SDS011;37377;45.186;9.778;2023-04-24T07:38:07;10.55;;;7.45;;
51292;SDS011;37377;45.186;9.778;2023-04-24T07:40:34;15.73;;;7.10;;
51292;SDS011;37377;45.186;9.778;2023-04-24T07:43:09;18.00;;;6.57;;
51292;SDS011;37377;45.186;9.778;2023-04-24T07:45:42;9.23;;;6.22;;
51292;SDS011;37377;45.186;9.778;2023-04-24T07:48:12;15.57;;;6.22;;
51292;SDS011;37377;45.186;9.778;2023-04-24T07:50:41;10.77;;;6.90;;
51292;SDS011;37377;45.186;9.778;2023-04-24T07:53:08;17.17;;;7.55;;
51292;SDS011;37377;45.186;9.778;2023-04-24T07:55:35;19.33;;;8.55;;
51292;SDS011;37377;45.186;9.778;2023-04-24T07:58:02;11.00;;;8.25;;
51292;SDS011;37377;45.186;9.778;2023-04-24T08:00:29;8.85;;;5.63;;
51292;SDS011;37377;45.186;9.778;2023-04-24T08:02:56;10.50;;;5.43;;
51292;SDS011;37377;45.186;9.778;2023-04-24T08:05:23;8.80;;;5.78;;
51292;SDS011;37377;45.186;9.778;2023-04-24T08:07:52;6.40;;;5.35;;
51292;SDS011;37377;45.186;9.778;2023-04-24T08:10:23;9.98;;;5.10;;
51292;SDS011;37377;45.186;9.778;2023-04-24T08:12:51;7.00;;;5.65;;
51292;SDS011;37377;45.186;9.778;2023-04-24T08:15:20;6.75;;;5.78;;
51292;SDS011;37377;45.186;9.778;2023-04-24T08:17:48;7.93;;;4.90;;
51292;SDS011;37377;45.186;9.778;2023-04-24T08:20:15;15.90;;;4.63;;
51292;SDS011;37377;45.186;9.778;2023-04-24T08:22:42;9.82;;;6.38;;
51292;SDS011;37377;45.186;9.778;2023-04-24T08:25:10;12.60;;;4.85;;
51292;SDS011;37377;45.186;9.778;2023-04-24T08:27:37;8.30;;;4.70;;
51292;SDS011;37377;45.186;9.778;2023-04-24T08:30:05;8.82;;;3.90;;
51292;SDS011;37377;45.186;9.778;2023-04-24T08:32:32;8.68;;;4.22;;
51292;SDS011;37377;45.186;9.778;2023-04-24T08:35:00;9.27;;;4.05;;
51292;SDS011;37377;45.186;9.778;2023-04-24T08:37:26;7.30;;;4.53;;
51292;SDS011;37377;45.186;9.778;2023-04-24T08:39:53;5.68;;;4.63;;
51292;SDS011;37377;45.186;9.778;2023-04-24T08:42:21;8.48;;;4.70;;
51292;SDS011;37377;45.186;9.778;2023-04-24T08:44:48;6.47;;;5.00;;
51292;SDS011;37377;45.186;9.778;2023-04-24T08:47:15;7.68;;;5.03;;
51292;SDS011;37377;45.186;9.778;2023-04-24T08:49:43;9.10;;;5.05;;
51292;SDS011;37377;45.186;9.778;2023-04-24T08:52:10;20.40;;;5.53;;
51292;SDS011;37377;45.186;9.778;2023-04-24T08:54:39;5.63;;;5.00;;
51292;SDS011;37377;45.186;9.778;2023-04-24T08:57:10;6.18;;;4.65;;
51292;SDS011;37377;45.186;9.778;2023-04-24T08:59:38;4.57;;;4.18;;
51292;SDS011;37377;45.186;9.778;2023-04-24T09:02:14;11.48;;;4.50;;
51292;SDS011;37377;45.186;9.778;2023-04-24T09:04:42;5.70;;;4.53;;
51292;SDS011;37377;45.186;9.778;2023-04-24T09:07:10;5.57;;;5.07;;
51292;SDS011;37377;45.186;9.778;2023-04-24T09:09:38;8.93;;;5.28;;
51292;SDS011;37377;45.186;9.778;2023-04-24T09:12:07;11.65;;;7.72;;
51292;SDS011;37377;45.186;9.778;2023-04-24T09:14:36;12.32;;;5.28;;
51292;SDS011;37377;45.186;9.778;2023-04-24T09:17:06;8.88;;;4.15;;
51292;SDS011;37377;45.186;9.778;2023-04-24T09:19:33;12.35;;;4.40;;
51292;SDS011;37377;45.186;9.778;2023-04-24T09:22:00;4.88;;;3.90;;
51292;SDS011;37377;45.186;9.778;2023-04-24T09:24:31;6.35;;;4.53;;
51292;SDS011;37377;45.186;9.778;2023-04-24T09:26:58;4.65;;;4.25;;
51292;SDS011;37377;45.186;9.778;2023-04-24T09:29:25;7.60;;;3.78;;
51292;SDS011;37377;45.186;9.778;2023-04-24T09:31:52;12.85;;;4.55;;
51292;SDS011;37377;45.186;9.778;2023-04-24T09:34:22;4.20;;;3.80;;
51292;SDS011;37377;45.186;9.778;2023-04-24T09:36:54;5.57;;;3.90;;
51292;SDS011;37377;45.186;9.778;2023-04-24T09:39:24;5.95;;;3.63;;
51292;SDS011;37377;45.186;9.778;2023-04-24T09:42:02;5.05;;;3.10;;
51292;SDS011;37377;45.186;9.778;2023-04-24T09:44:34;8.73;;;3.65;;
51292;SDS011;37377;45.186;9.778;2023-04-24T09:47:08;3.00;;;2.70;;
51292;SDS011;37377;45.186;9.778;2023-04-24T09:49:50;4.32;;;3.42;;
51292;SDS011;37377;45.186;9.778;2023-04-24T09:52:23;8.95;;;3.67;;
51292;SDS011;37377;45.186;9.778;2023-04-24T09:54:59;6.78;;;3.67;;
51292;SDS011;37377;45.186;9.778;2023-04-24T09:57:51;7.28;;;3.97;;
51292;SDS011;37377;45.186;9.778;2023-04-24T10:00:34;4.97;;;3.75;;
51292;SDS011;37377;45.186;9.778;2023-04-24T10:03:13;8.70;;;3.72;;
51292;SDS011;37377;45.186;9.778;2023-04-24T10:05:48;5.03;;;3.50;;
51292;SDS011;37377;45.186;9.778;2023-04-24T10:08:23;5.20;;;3.97;;
51292;SDS011;37377;45.186;9.778;2023-04-24T10:10:50;5.75;;;4.10;;
51292;SDS011;37377;45.186;9.778;2023-04-24T10:13:26;7.32;;;4.13;;
51292;SDS011;37377;45.186;9.778;2023-04-24T10:15:59;4.85;;;4.35;;
51292;SDS011;37377;45.186;9.778;2023-04-24T10:18:33;8.90;;;4.82;;
51292;SDS011;37377;45.186;9.778;2023-04-24T10:21:04;4.75;;;3.88;;
51292;SDS011;37377;45.186;9.778;2023-04-24T10:23:37;6.05;;;5.43;;
51292;SDS011;37377;45.186;9.778;2023-04-24T10:26:06;5.30;;;4.60;;
51292;SDS011;37377;45.186;9.778;2023-04-24T10:28:45;5.82;;;5.28;;
51292;SDS011;37377;45.186;9.778;2023-04-24T10:31:16;9.63;;;4.55;;
51292;SDS011;37377;45.186;9.778;2023-04-24T10:36:22;9.18;;;4.78;;
51292;SDS011;37377;45.186;9.778;2023-04-24T10:38:54;6.30;;;4.50;;
51292;SDS011;37377;45.186;9.778;2023-04-24T10:41:32;8.90;;;4.72;;
51292;SDS011;37377;45.186;9.778;2023-04-24T10:44:08;5.18;;;4.68;;
51292;SDS011;37377;45.186;9.778;2023-04-24T10:46:47;9.27;;;4.88;;
51292;SDS011;37377;45.186;9.778;2023-04-24T10:49:41;11.27;;;10.10;;
51292;SDS011;37377;45.186;9.778;2023-04-24T10:52:14;7.18;;;4.78;;
51292;SDS011;37377;45.186;9.778;2023-04-24T10:54:46;6.60;;;4.93;;
51292;SDS011;37377;45.186;9.778;2023-04-24T11:00:10;5.57;;;5.07;;
51292;SDS011;37377;45.186;9.778;2023-04-24T11:02:39;7.80;;;5.78;;
51292;SDS011;37377;45.186;9.778;2023-04-24T11:05:07;9.95;;;5.03;;
51292;SDS011;37377;45.186;9.778;2023-04-24T11:10:26;8.27;;;6.85;;
51292;SDS011;37377;45.186;9.778;2023-04-24T11:12:55;8.35;;;7.22;;
51292;SDS011;37377;45.186;9.778;2023-04-24T11:15:22;7.80;;;6.03;;
51292;SDS011;37377;45.186;9.778;2023-04-24T11:21:09;6.97;;;6.38;;
51292;SDS011;37377;45.186;9.778;2023-04-24T11:23:39;6.65;;;6.10;;
51292;SDS011;37377;45.186;9.778;2023-04-24T11:26:10;11.98;;;5.90;;
51292;SDS011;37377;45.186;9.778;2023-04-24T11:28:37;8.68;;;6.03;;
51292;SDS011;37377;45.186;9.778;2023-04-24T11:31:44;9.13;;;5.95;;
51292;SDS011;37377;45.186;9.778;2023-04-24T11:34:21;7.47;;;6.78;;
51292;SDS011;37377;45.186;9.778;2023-04-24T11:37:11;11.25;;;6.82;;
51292;SDS011;37377;45.186;9.778;2023-04-24T11:45:33;8.85;;;5.95;;
51292;SDS011;37377;45.186;9.778;2023-04-24T11:59:44;4.40;;;3.55;;
51292;SDS011;37377;45.186;9.778;2023-04-24T12:04:01;5.32;;;1.88;;
51292;SDS011;37377;45.186;9.778;2023-04-24T12:06:29;2.83;;;1.95;;
51292;SDS011;37377;45.186;9.778;2023-04-24T12:09:11;4.80;;;2.35;;
51292;SDS011;37377;45.186;9.778;2023-04-24T12:11:56;3.03;;;2.03;;
51292;SDS011;37377;45.186;9.778;2023-04-24T12:14:57;3.10;;;2.13;;
51292;SDS011;37377;45.186;9.778;2023-04-24T12:17:28;4.22;;;2.13;;
51292;SDS011;37377;45.186;9.778;2023-04-24T12:19:57;4.10;;;2.67;;
51292;SDS011;37377;45.186;9.778;2023-04-24T12:22:24;4.45;;;1.80;;
51292;SDS011;37377;45.186;9.778;2023-04-24T12:24:57;3.65;;;1.90;;
51292;SDS011;37377;45.186;9.778;2023-04-24T12:27:25;3.05;;;1.80;;
51292;SDS011;37377;45.186;9.778;2023-04-24T12:29:52;4.03;;;1.70;;
51292;SDS011;37377;45.186;9.778;2023-04-24T12:32:23;2.30;;;1.58;;
51292;SDS011;37377;45.186;9.778;2023-04-24T12:34:54;4.80;;;2.13;;
51292;SDS011;37377;45.186;9.778;2023-04-24T12:37:22;2.67;;;1.85;;
51292;SDS011;37377;45.186;9.778;2023-04-24T12:40:03;2.08;;;1.67;;
51292;SDS011;37377;45.186;9.778;2023-04-24T12:42:45;2.28;;;1.50;;
51292;SDS011;37377;45.186;9.778;2023-04-24T12:45:18;2.90;;;1.30;;
51292;SDS011;37377;45.186;9.778;2023-04-24T12:47:45;2.70;;;1.05;;
51292;SDS011;37377;45.186;9.778;2023-04-24T12:50:14;5.53;;;1.10;;
51292;SDS011;37377;45.186;9.778;2023-04-24T12:52:42;1.88;;;1.67;;
51292;SDS011;37377;45.186;9.778;2023-04-24T12:55:09;3.35;;;1.23;;
51292;SDS011;37377;45.186;9.778;2023-04-24T12:57:37;2.65;;;1.20;;
51292;SDS011;37377;45.186;9.778;2023-04-24T13:00:05;2.90;;;0.70;;
51292;SDS011;37377;45.186;9.778;2023-04-24T13:02:33;3.95;;;1.48;;
51292;SDS011;37377;45.186;9.778;2023-04-24T13:05:01;4.32;;;1.55;;
51292;SDS011;37377;45.186;9.778;2023-04-24T13:07:30;1.05;;;0.77;;
51292;SDS011;37377;45.186;9.778;2023-04-24T13:09:57;0.47;;;0.40;;
51292;SDS011;37377;45.186;9.778;2023-04-24T13:12:24;1.55;;;0.60;;
51292;SDS011;37377;45.186;9.778;2023-04-24T13:14:53;5.30;;;1.15;;
51292;SDS011;37377;45.186;9.778;2023-04-24T13:17:32;1.90;;;0.50;;
51292;SDS011;37377;45.186;9.778;2023-04-24T13:19:59;1.02;;;0.65;;
51292;SDS011;37377;45.186;9.778;2023-04-24T13:22:26;1.00;;;0.40;;
51292;SDS011;37377;45.186;9.778;2023-04-24T13:25:01;1.92;;;0.47;;
51292;SDS011;37377;45.186;9.778;2023-04-24T13:27:30;0.63;;;0.60;;
51292;SDS011;37377;45.186;9.778;2023-04-24T13:29:56;4.75;;;0.80;;
51292;SDS011;37377;45.186;9.778;2023-04-24T13:32:23;1.50;;;0.85;;
51292;SDS011;37377;45.186;9.778;2023-04-24T13:34:50;1.55;;;0.63;;
51292;SDS011;37377;45.186;9.778;2023-04-24T13:37:17;1.23;;;0.90;;
51292;SDS011;37377;45.186;9.778;2023-04-24T13:39:50;0.82;;;0.60;;
51292;SDS011;37377;45.186;9.778;2023-04-24T13:42:18;1.98;;;1.23;;
51292;SDS011;37377;45.186;9.778;2023-04-24T13:44:45;1.33;;;1.15;;
51292;SDS011;37377;45.186;9.778;2023-04-24T13:47:12;0.40;;;0.40;;
51292;SDS011;37377;45.186;9.778;2023-04-24T13:49:39;1.88;;;0.73;;
51292;SDS011;37377;45.186;9.778;2023-04-24T13:52:06;1.00;;;0.50;;
51292;SDS011;37377;45.186;9.778;2023-04-24T13:54:33;6.55;;;3.80;;
51292;SDS011;37377;45.186;9.778;2023-04-24T13:57:01;10.35;;;7.50;;
51292;SDS011;37377;45.186;9.778;2023-04-24T13:59:29;2.38;;;1.52;;
51292;SDS011;37377;45.186;9.778;2023-04-24T14:01:56;1.00;;;0.90;;
51292;SDS011;37377;45.186;9.778;2023-04-24T14:04:24;3.83;;;2.25;;
51292;SDS011;37377;45.186;9.778;2023-04-24T14:06:51;2.25;;;1.15;;
51292;SDS011;37377;45.186;9.778;2023-04-24T14:09:18;5.55;;;0.82;;
51292;SDS011;37377;45.186;9.778;2023-04-24T14:11:45;1.55;;;0.70;;
51292;SDS011;37377;45.186;9.778;2023-04-24T14:14:12;3.05;;;1.42;;
51292;SDS011;37377;45.186;9.778;2023-04-24T14:16:39;2.70;;;1.73;;
51292;SDS011;37377;45.186;9.778;2023-04-24T14:19:06;6.30;;;1.88;;
51292;SDS011;37377;45.186;9.778;2023-04-24T14:21:33;3.53;;;1.80;;
51292;SDS011;37377;45.186;9.778;2023-04-24T14:24:00;2.13;;;1.00;;
51292;SDS011;37377;45.186;9.778;2023-04-24T14:26:28;1.10;;;0.60;;
51292;SDS011;37377;45.186;9.778;2023-04-24T14:28:54;7.07;;;2.25;;
51292;SDS011;37377;45.186;9.778;2023-04-24T14:31:39;1.00;;;0.82;;
51292;SDS011;37377;45.186;9.778;2023-04-24T14:34:19;2.90;;;0.73;;
51292;SDS011;37377;45.186;9.778;2023-04-24T14:36:50;0.70;;;0.45;;
51292;SDS011;37377;45.186;9.778;2023-04-24T14:39:17;3.35;;;0.82;;
51292;SDS011;37377;45.186;9.778;2023-04-24T14:41:44;3.45;;;0.65;;
51292;SDS011;37377;45.186;9.778;2023-04-24T14:44:12;2.38;;;0.70;;
51292;SDS011;37377;45.186;9.778;2023-04-24T14:46:39;7.63;;;1.60;;
51292;SDS011;37377;45.186;9.778;2023-04-24T14:49:10;3.65;;;1.35;;
51292;SDS011;37377;45.186;9.778;2023-04-24T14:51:39;1.33;;;0.43;;
51292;SDS011;37377;45.186;9.778;2023-04-24T14:54:06;3.05;;;0.60;;
51292;SDS011;37377;45.186;9.778;2023-04-24T14:56:33;0.80;;;0.80;;
51292;SDS011;37377;45.186;9.778;2023-04-24T14:59:00;2.30;;;1.00;;
51292;SDS011;37377;45.186;9.778;2023-04-24T15:01:29;1.92;;;0.75;;
51292;SDS011;37377;45.186;9.778;2023-04-24T15:03:56;1.45;;;0.85;;
51292;SDS011;37377;45.186;9.778;2023-04-24T15:06:23;4.70;;;0.60;;
51292;SDS011;37377;45.186;9.778;2023-04-24T15:08:50;8.95;;;1.60;;
51292;SDS011;37377;45.186;9.778;2023-04-24T15:11:26;12.93;;;5.20;;
51292;SDS011;37377;45.186;9.778;2023-04-24T15:13:54;6.93;;;1.92;;
51292;SDS011;37377;45.186;9.778;2023-04-24T15:16:21;19.48;;;13.02;;
51292;SDS011;37377;45.186;9.778;2023-04-24T15:18:48;10.27;;;7.03;;
51292;SDS011;37377;45.186;9.778;2023-04-24T15:21:14;9.75;;;4.88;;
51292;SDS011;37377;45.186;9.778;2023-04-24T15:23:41;14.23;;;8.23;;
51292;SDS011;37377;45.186;9.778;2023-04-24T15:26:08;5.47;;;3.13;;
51292;SDS011;37377;45.186;9.778;2023-04-24T15:28:35;3.15;;;1.90;;
51292;SDS011;37377;45.186;9.778;2023-04-24T15:31:02;3.00;;;2.70;;
51292;SDS011;37377;45.186;9.778;2023-04-24T15:33:29;15.38;;;13.40;;
51292;SDS011;37377;45.186;9.778;2023-04-24T15:35:57;3.63;;;2.30;;